sensor_id;sensor_type;location;lat;lon;timestamp;pressure;altitude;pressure_sealevel;temperature;humidity
60437;BME280;46289;51.992;4.498;2023-09-19T00:01:30;100750.06;;;14.25;88.38
60437;BME280;46289;51.992;4.498;2023-09-19T00:03:38;100747.22;;;14.28;85.50
60437;BME280;46289;51.992;4.498;2023-09-19T00:05:45;100747.22;;;14.28;86.26
60437;BME280;46289;51.992;4.498;2023-09-19T00:07:52;100740.56;;;14.37;85.49
60437;BME280;46289;51.992;4.498;2023-09-19T00:10:00;100745.41;;;14.44;84.89
60437;BME280;46289;51.992;4.498;2023-09-19T00:12:06;100753.16;;;14.47;84.48
60437;BME280;46289;51.992;4.498;2023-09-19T00:14:14;100755.03;;;14.45;84.15
60437;BME280;46289;51.992;4.498;2023-09-19T00:16:20;100756.41;;;14.37;85.27
60437;BME280;46289;51.992;4.498;2023-09-19T00:18:27;100750.28;;;14.36;84.45
60437;BME280;46289;51.992;4.498;2023-09-19T00:20:38;100757.63;;;14.31;85.95
60437;BME280;46289;51.992;4.498;2023-09-19T00:22:46;100758.66;;;14.28;86.00
60437;BME280;46289;51.992;4.498;2023-09-19T00:24:49;100759.69;;;14.26;85.22
60437;BME280;46289;51.992;4.498;2023-09-19T00:27:02;100754.38;;;14.26;86.07
60437;BME280;46289;51.992;4.498;2023-09-19T00:29:07;100760.03;;;14.20;86.51
60437;BME280;46289;51.992;4.498;2023-09-19T00:31:16;100760.28;;;14.15;86.89
60437;BME280;46289;51.992;4.498;2023-09-19T00:33:22;100764.63;;;14.16;87.90
60437;BME280;46289;51.992;4.498;2023-09-19T00:35:27;100769.16;;;14.14;89.65
60437;BME280;46289;51.992;4.498;2023-09-19T00:37:35;100775.06;;;14.03;88.92
60437;BME280;46289;51.992;4.498;2023-09-19T00:39:42;100773.69;;;13.96;89.69
60437;BME280;46289;51.992;4.498;2023-09-19T00:41:48;100775.63;;;13.93;89.14
60437;BME280;46289;51.992;4.498;2023-09-19T00:43:56;100781.25;;;14.02;89.09
60437;BME280;46289;51.992;4.498;2023-09-19T00:46:02;100775.56;;;13.94;90.37
60437;BME280;46289;51.992;4.498;2023-09-19T00:48:10;100774.03;;;13.90;91.39
60437;BME280;46289;51.992;4.498;2023-09-19T00:50:15;100777.44;;;13.92;90.32
60437;BME280;46289;51.992;4.498;2023-09-19T00:52:21;100781.00;;;13.91;91.58
60437;BME280;46289;51.992;4.498;2023-09-19T00:54:29;100774.78;;;13.92;91.31
60437;BME280;46289;51.992;4.498;2023-09-19T00:56:37;100785.09;;;13.97;90.36
60437;BME280;46289;51.992;4.498;2023-09-19T00:58:43;100778.19;;;13.94;90.45
60437;BME280;46289;51.992;4.498;2023-09-19T01:00:47;100783.31;;;13.97;90.01
60437;BME280;46289;51.992;4.498;2023-09-19T01:02:54;100784.09;;;13.99;90.95
60437;BME280;46289;51.992;4.498;2023-09-19T01:04:59;100780.84;;;13.94;91.47
60437;BME280;46289;51.992;4.498;2023-09-19T01:07:06;100787.66;;;13.98;91.78
60437;BME280;46289;51.992;4.498;2023-09-19T01:09:13;100785.34;;;14.08;90.46
60437;BME280;46289;51.992;4.498;2023-09-19T01:11:28;100796.88;;;14.07;90.31
60437;BME280;46289;51.992;4.498;2023-09-19T01:13:45;100796.03;;;14.07;91.18
60437;BME280;46289;51.992;4.498;2023-09-19T01:16:01;100785.88;;;14.15;90.27
60437;BME280;46289;51.992;4.498;2023-09-19T01:18:17;100788.09;;;14.07;90.77
60437;BME280;46289;51.992;4.498;2023-09-19T01:20:32;100788.16;;;14.05;92.07
60437;BME280;46289;51.992;4.498;2023-09-19T01:22:48;100791.22;;;14.13;90.53
60437;BME280;46289;51.992;4.498;2023-09-19T01:25:20;100781.50;;;14.14;91.14
60437;BME280;46289;51.992;4.498;2023-09-19T01:27:53;100779.56;;;14.17;91.31
60437;BME280;46289;51.992;4.498;2023-09-19T01:30:14;100785.25;;;14.25;92.57
60437;BME280;46289;51.992;4.498;2023-09-19T01:32:27;100795.91;;;14.24;93.79
60437;BME280;46289;51.992;4.498;2023-09-19T01:34:45;100806.00;;;14.17;95.67
60437;BME280;46289;51.992;4.498;2023-09-19T01:36:52;100788.41;;;14.16;97.05
60437;BME280;46289;51.992;4.498;2023-09-19T01:38:58;100798.84;;;14.19;96.33
60437;BME280;46289;51.992;4.498;2023-09-19T01:41:11;100801.19;;;14.24;95.21
60437;BME280;46289;51.992;4.498;2023-09-19T01:43:20;100789.88;;;14.22;95.22
60437;BME280;46289;51.992;4.498;2023-09-19T01:45:34;100792.34;;;14.25;94.13
60437;BME280;46289;51.992;4.498;2023-09-19T01:47:46;100791.56;;;14.23;93.68
60437;BME280;46289;51.992;4.498;2023-09-19T01:49:59;100787.84;;;14.27;91.84
60437;BME280;46289;51.992;4.498;2023-09-19T01:52:11;100794.28;;;14.21;92.39
60437;BME280;46289;51.992;4.498;2023-09-19T01:54:26;100790.47;;;14.27;90.71
60437;BME280;46289;51.992;4.498;2023-09-19T01:56:37;100794.22;;;14.23;91.21
60437;BME280;46289;51.992;4.498;2023-09-19T01:58:48;100800.59;;;14.19;90.89
60437;BME280;46289;51.992;4.498;2023-09-19T02:01:00;100793.44;;;14.21;90.08
60437;BME280;46289;51.992;4.498;2023-09-19T02:03:08;100799.94;;;14.15;90.76
60437;BME280;46289;51.992;4.498;2023-09-19T02:05:22;100796.50;;;14.13;90.37
60437;BME280;46289;51.992;4.498;2023-09-19T02:07:27;100802.50;;;14.17;89.34
60437;BME280;46289;51.992;4.498;2023-09-19T02:09:31;100797.72;;;14.08;89.92
60437;BME280;46289;51.992;4.498;2023-09-19T02:11:40;100800.88;;;14.14;89.13
60437;BME280;46289;51.992;4.498;2023-09-19T02:13:45;100796.63;;;14.12;89.63
60437;BME280;46289;51.992;4.498;2023-09-19T02:15:50;100794.03;;;14.10;89.21
60437;BME280;46289;51.992;4.498;2023-09-19T02:17:55;100791.50;;;14.09;89.94
60437;BME280;46289;51.992;4.498;2023-09-19T02:20:01;100799.59;;;14.05;90.61
60437;BME280;46289;51.992;4.498;2023-09-19T02:22:05;100801.31;;;14.07;90.72
60437;BME280;46289;51.992;4.498;2023-09-19T02:24:15;100797.03;;;14.04;91.11
60437;BME280;46289;51.992;4.498;2023-09-19T02:26:21;100804.78;;;14.07;91.29
60437;BME280;46289;51.992;4.498;2023-09-19T02:28:26;100800.09;;;13.96;92.04
60437;BME280;46289;51.992;4.498;2023-09-19T02:30:34;100803.53;;;13.98;91.56
60437;BME280;46289;51.992;4.498;2023-09-19T02:32:39;100804.19;;;14.02;91.41
60437;BME280;46289;51.992;4.498;2023-09-19T02:34:49;100809.06;;;14.10;91.57
60437;BME280;46289;51.992;4.498;2023-09-19T02:36:58;100809.84;;;14.12;90.98
60437;BME280;46289;51.992;4.498;2023-09-19T02:39:03;100812.78;;;14.05;91.52
60437;BME280;46289;51.992;4.498;2023-09-19T02:41:07;100809.72;;;14.13;91.08
60437;BME280;46289;51.992;4.498;2023-09-19T02:43:15;100807.19;;;14.12;91.30
60437;BME280;46289;51.992;4.498;2023-09-19T02:45:22;100800.00;;;14.14;91.31
60437;BME280;46289;51.992;4.498;2023-09-19T02:47:27;100801.47;;;14.19;90.71
60437;BME280;46289;51.992;4.498;2023-09-19T02:49:33;100790.81;;;14.21;90.02
60437;BME280;46289;51.992;4.498;2023-09-19T02:51:41;100791.75;;;14.20;90.36
60437;BME280;46289;51.992;4.498;2023-09-19T02:53:46;100796.84;;;14.23;90.12
60437;BME280;46289;51.992;4.498;2023-09-19T02:55:49;100789.00;;;14.21;90.62
60437;BME280;46289;51.992;4.498;2023-09-19T02:57:56;100787.31;;;14.20;90.37
60437;BME280;46289;51.992;4.498;2023-09-19T03:00:04;100796.94;;;14.21;90.70
60437;BME280;46289;51.992;4.498;2023-09-19T03:02:07;100803.09;;;14.22;90.69
60437;BME280;46289;51.992;4.498;2023-09-19T03:04:12;100805.81;;;14.20;90.82
60437;BME280;46289;51.992;4.498;2023-09-19T03:06:21;100797.53;;;14.26;90.49
60437;BME280;46289;51.992;4.498;2023-09-19T03:08:29;100797.19;;;14.33;90.64
60437;BME280;46289;51.992;4.498;2023-09-19T03:10:38;100796.00;;;14.38;90.13
60437;BME280;46289;51.992;4.498;2023-09-19T03:12:43;100798.09;;;14.47;89.88
60437;BME280;46289;51.992;4.498;2023-09-19T03:14:48;100807.06;;;14.45;90.74
60437;BME280;46289;51.992;4.498;2023-09-19T03:16:55;100812.94;;;14.50;89.58
60437;BME280;46289;51.992;4.498;2023-09-19T03:19:04;100808.25;;;14.55;89.54
60437;BME280;46289;51.992;4.498;2023-09-19T03:21:12;100796.06;;;14.53;87.82
60437;BME280;46289;51.992;4.498;2023-09-19T03:23:18;100798.19;;;14.62;87.76
60437;BME280;46289;51.992;4.498;2023-09-19T03:25:26;100803.19;;;14.66;87.09
60437;BME280;46289;51.992;4.498;2023-09-19T03:27:31;100799.91;;;14.63;86.69
60437;BME280;46289;51.992;4.498;2023-09-19T03:29:36;100796.47;;;14.61;87.25
60437;BME280;46289;51.992;4.498;2023-09-19T03:31:42;100801.34;;;14.53;87.99
60437;BME280;46289;51.992;4.498;2023-09-19T03:33:47;100792.81;;;14.47;88.19
60437;BME280;46289;51.992;4.498;2023-09-19T03:35:52;100801.78;;;14.45;90.00
60437;BME280;46289;51.992;4.498;2023-09-19T03:38:00;100791.38;;;14.42;92.68
60437;BME280;46289;51.992;4.498;2023-09-19T03:40:06;100791.72;;;14.36;94.42
60437;BME280;46289;51.992;4.498;2023-09-19T03:42:17;100796.44;;;14.31;95.30
60437;BME280;46289;51.992;4.498;2023-09-19T03:44:27;100811.88;;;14.22;96.14
60437;BME280;46289;51.992;4.498;2023-09-19T03:46:32;100819.56;;;14.27;96.83
60437;BME280;46289;51.992;4.498;2023-09-19T03:48:38;100804.97;;;14.20;97.14
60437;BME280;46289;51.992;4.498;2023-09-19T03:50:46;100821.25;;;14.12;97.56
60437;BME280;46289;51.992;4.498;2023-09-19T03:52:56;100813.56;;;14.23;97.24
60437;BME280;46289;51.992;4.498;2023-09-19T03:55:06;100821.41;;;14.25;97.43
60437;BME280;46289;51.992;4.498;2023-09-19T03:57:11;100822.09;;;14.28;97.00
60437;BME280;46289;51.992;4.498;2023-09-19T03:59:24;100825.50;;;14.31;96.62
60437;BME280;46289;51.992;4.498;2023-09-19T04:01:31;100826.19;;;14.34;96.41
60437;BME280;46289;51.992;4.498;2023-09-19T04:03:36;100834.34;;;14.30;96.95
60437;BME280;46289;51.992;4.498;2023-09-19T04:05:48;100830.44;;;14.21;97.42
60437;BME280;46289;51.992;4.498;2023-09-19T04:07:56;100835.66;;;14.22;98.13
60437;BME280;46289;51.992;4.498;2023-09-19T04:10:02;100836.69;;;14.20;97.81
60437;BME280;46289;51.992;4.498;2023-09-19T04:12:07;100844.19;;;14.27;97.73
60437;BME280;46289;51.992;4.498;2023-09-19T04:14:12;100846.31;;;14.21;97.82
60437;BME280;46289;51.992;4.498;2023-09-19T04:16:20;100839.41;;;14.18;98.31
60437;BME280;46289;51.992;4.498;2023-09-19T04:18:27;100843.91;;;14.16;98.68
60437;BME280;46289;51.992;4.498;2023-09-19T04:20:35;100842.16;;;14.17;99.26
60437;BME280;46289;51.992;4.498;2023-09-19T04:22:40;100850.81;;;14.19;98.65
60437;BME280;46289;51.992;4.498;2023-09-19T04:24:45;100842.88;;;14.19;99.20
60437;BME280;46289;51.992;4.498;2023-09-19T04:26:50;100844.59;;;14.20;98.86
60437;BME280;46289;51.992;4.498;2023-09-19T04:28:58;100841.97;;;14.20;98.92
60437;BME280;46289;51.992;4.498;2023-09-19T04:31:03;100846.13;;;14.24;98.63
60437;BME280;46289;51.992;4.498;2023-09-19T04:33:12;100843.66;;;14.21;98.91
60437;BME280;46289;51.992;4.498;2023-09-19T04:35:20;100842.63;;;14.23;98.89
60437;BME280;46289;51.992;4.498;2023-09-19T04:37:25;100846.13;;;14.24;98.60
60437;BME280;46289;51.992;4.498;2023-09-19T04:39:31;100844.78;;;14.33;97.75
60437;BME280;46289;51.992;4.498;2023-09-19T04:41:36;100852.00;;;14.29;97.62
60437;BME280;46289;51.992;4.498;2023-09-19T04:43:43;100854.66;;;14.29;98.01
60437;BME280;46289;51.992;4.498;2023-09-19T04:45:51;100855.50;;;14.30;97.84
60437;BME280;46289;51.992;4.498;2023-09-19T04:47:58;100859.63;;;14.35;97.45
60437;BME280;46289;51.992;4.498;2023-09-19T04:50:08;100857.81;;;14.36;97.71
60437;BME280;46289;51.992;4.498;2023-09-19T04:52:16;100849.19;;;14.32;97.86
60437;BME280;46289;51.992;4.498;2023-09-19T04:54:22;100852.28;;;14.24;98.33
60437;BME280;46289;51.992;4.498;2023-09-19T04:56:29;100855.50;;;14.30;98.83
60437;BME280;46289;51.992;4.498;2023-09-19T04:58:34;100861.06;;;14.25;99.62
60437;BME280;46289;51.992;4.498;2023-09-19T05:00:39;100850.66;;;14.22;99.86
60437;BME280;46289;51.992;4.498;2023-09-19T05:02:44;100859.28;;;14.25;99.64
60437;BME280;46289;51.992;4.498;2023-09-19T05:04:47;100857.56;;;14.24;99.76
60437;BME280;46289;51.992;4.498;2023-09-19T05:06:55;100865.22;;;14.29;99.62
60437;BME280;46289;51.992;4.498;2023-09-19T05:09:03;100859.94;;;14.29;99.33
60437;BME280;46289;51.992;4.498;2023-09-19T05:11:08;100853.03;;;14.26;99.31
60437;BME280;46289;51.992;4.498;2023-09-19T05:13:14;100860.78;;;14.30;98.91
60437;BME280;46289;51.992;4.498;2023-09-19T05:15:19;100853.91;;;14.27;98.88
60437;BME280;46289;51.992;4.498;2023-09-19T05:17:24;100861.56;;;14.32;98.38
60437;BME280;46289;51.992;4.498;2023-09-19T05:19:29;100850.38;;;14.26;99.02
60437;BME280;46289;51.992;4.498;2023-09-19T05:21:34;100856.88;;;14.21;99.75
60437;BME280;46289;51.992;4.498;2023-09-19T05:23:43;100853.97;;;14.25;99.25
60437;BME280;46289;51.992;4.498;2023-09-19T05:25:49;100849.53;;;14.26;98.79
60437;BME280;46289;51.992;4.498;2023-09-19T05:27:57;100863.72;;;14.25;99.52
60437;BME280;46289;51.992;4.498;2023-09-19T05:30:06;100852.00;;;14.29;98.49
60437;BME280;46289;51.992;4.498;2023-09-19T05:32:11;100840.09;;;14.22;99.32
60437;BME280;46289;51.992;4.498;2023-09-19T05:34:17;100853.31;;;14.22;99.02
60437;BME280;46289;51.992;4.498;2023-09-19T05:36:22;100840.84;;;14.24;99.31
60437;BME280;46289;51.992;4.498;2023-09-19T05:38:27;100849.91;;;14.20;99.97
60437;BME280;46289;51.992;4.498;2023-09-19T05:40:35;100849.91;;;14.20;99.18
60437;BME280;46289;51.992;4.498;2023-09-19T05:42:41;100856.69;;;14.24;100.00
60437;BME280;46289;51.992;4.498;2023-09-19T05:44:46;100852.28;;;14.24;100.00
60437;BME280;46289;51.992;4.498;2023-09-19T05:46:51;100857.47;;;14.26;100.00
60437;BME280;46289;51.992;4.498;2023-09-19T05:48:58;100860.97;;;14.26;100.00
60437;BME280;46289;51.992;4.498;2023-09-19T05:51:05;100875.19;;;14.24;100.00
60437;BME280;46289;51.992;4.498;2023-09-19T05:53:10;100873.44;;;14.24;100.00
60437;BME280;46289;51.992;4.498;2023-09-19T05:55:17;100866.06;;;14.30;100.00
60437;BME280;46289;51.992;4.498;2023-09-19T05:57:25;100879.22;;;14.31;100.00
60437;BME280;46289;51.992;4.498;2023-09-19T05:59:31;100872.06;;;14.33;100.00
60437;BME280;46289;51.992;4.498;2023-09-19T06:01:36;100882.22;;;14.41;100.00
60437;BME280;46289;51.992;4.498;2023-09-19T06:03:41;100884.00;;;14.40;100.00
60437;BME280;46289;51.992;4.498;2023-09-19T06:05:46;100875.19;;;14.40;100.00
60437;BME280;46289;51.992;4.498;2023-09-19T06:07:59;100872.13;;;14.47;100.00
60437;BME280;46289;51.992;4.498;2023-09-19T06:10:10;100885.16;;;14.50;100.00
60437;BME280;46289;51.992;4.498;2023-09-19T06:12:12;100893.09;;;14.50;100.00
60437;BME280;46289;51.992;4.498;2023-09-19T06:14:21;100888.78;;;14.49;100.00
60437;BME280;46289;51.992;4.498;2023-09-19T06:16:26;100880.84;;;14.49;100.00
60437;BME280;46289;51.992;4.498;2023-09-19T06:18:29;100889.53;;;14.52;100.00
60437;BME280;46289;51.992;4.498;2023-09-19T06:20:35;100878.97;;;14.52;100.00
60437;BME280;46289;51.992;4.498;2023-09-19T06:22:46;100892.25;;;14.50;100.00
60437;BME280;46289;51.992;4.498;2023-09-19T06:24:52;100879.03;;;14.50;100.00
60437;BME280;46289;51.992;4.498;2023-09-19T06:26:58;100891.28;;;14.53;100.00
60437;BME280;46289;51.992;4.498;2023-09-19T06:29:04;100887.53;;;14.57;100.00
60437;BME280;46289;51.992;4.498;2023-09-19T06:31:12;100887.41;;;14.58;100.00
60437;BME280;46289;51.992;4.498;2023-09-19T06:33:17;100894.50;;;14.58;100.00
60437;BME280;46289;51.992;4.498;2023-09-19T06:35:22;100893.59;;;14.59;100.00
60437;BME280;46289;51.992;4.498;2023-09-19T06:37:28;100901.25;;;14.63;100.00
60437;BME280;46289;51.992;4.498;2023-09-19T06:39:34;100897.50;;;14.67;100.00
60437;BME280;46289;51.992;4.498;2023-09-19T06:41:39;100896.66;;;14.67;100.00
60437;BME280;46289;51.992;4.498;2023-09-19T06:43:48;100900.22;;;14.66;100.00
60437;BME280;46289;51.992;4.498;2023-09-19T06:45:57;100900.13;;;14.67;100.00
60437;BME280;46289;51.992;4.498;2023-09-19T06:48:05;100893.81;;;14.70;100.00
60437;BME280;46289;51.992;4.498;2023-09-19T06:50:14;100906.03;;;14.73;100.00
60437;BME280;46289;51.992;4.498;2023-09-19T06:52:21;100899.72;;;14.75;100.00
60437;BME280;46289;51.992;4.498;2023-09-19T06:54:24;100906.63;;;14.78;100.00
60437;BME280;46289;51.992;4.498;2023-09-19T06:56:33;100899.53;;;14.78;100.00
60437;BME280;46289;51.992;4.498;2023-09-19T06:58:38;100894.91;;;14.82;100.00
60437;BME280;46289;51.992;4.498;2023-09-19T07:00:47;100890.19;;;14.87;100.00
60437;BME280;46289;51.992;4.498;2023-09-19T07:02:56;100896.25;;;14.89;100.00
60437;BME280;46289;51.992;4.498;2023-09-19T07:05:06;100890.72;;;14.93;99.75
60437;BME280;46289;51.992;4.498;2023-09-19T07:07:14;100898.41;;;14.98;99.46
60437;BME280;46289;51.992;4.498;2023-09-19T07:09:19;100899.53;;;15.08;98.64
60437;BME280;46289;51.992;4.498;2023-09-19T07:11:24;100903.47;;;15.17;98.62
60437;BME280;46289;51.992;4.498;2023-09-19T07:13:29;100902.31;;;15.21;98.51
60437;BME280;46289;51.992;4.498;2023-09-19T07:15:38;100903.00;;;15.25;98.56
60437;BME280;46289;51.992;4.498;2023-09-19T07:17:48;100903.41;;;15.33;98.54
60437;BME280;46289;51.992;4.498;2023-09-19T07:19:57;100895.66;;;15.30;97.95
60437;BME280;46289;51.992;4.498;2023-09-19T07:22:04;100901.41;;;15.36;98.44
60437;BME280;46289;51.992;4.498;2023-09-19T07:24:09;100899.22;;;15.29;97.69
60437;BME280;46289;51.992;4.498;2023-09-19T07:26:15;100904.47;;;15.45;98.14
60437;BME280;46289;51.992;4.498;2023-09-19T07:28:21;100904.38;;;15.61;96.96
60437;BME280;46289;51.992;4.498;2023-09-19T07:30:26;100916.50;;;15.65;96.18
60437;BME280;46289;51.992;4.498;2023-09-19T07:32:31;100911.06;;;15.82;96.63
60437;BME280;46289;51.992;4.498;2023-09-19T07:34:37;100910.09;;;15.69;95.16
60437;BME280;46289;51.992;4.498;2023-09-19T07:36:46;100887.69;;;15.74;96.34
60437;BME280;46289;51.992;4.498;2023-09-19T07:38:51;100909.34;;;15.67;96.53
60437;BME280;46289;51.992;4.498;2023-09-19T07:41:19;100902.97;;;15.55;96.07
60437;BME280;46289;51.992;4.498;2023-09-19T07:43:25;100913.31;;;15.74;96.25
60437;BME280;46289;51.992;4.498;2023-09-19T07:45:30;100921.03;;;15.63;94.99
60437;BME280;46289;51.992;4.498;2023-09-19T07:47:35;100922.41;;;15.84;95.15
60437;BME280;46289;51.992;4.498;2023-09-19T07:49:41;100913.63;;;15.84;94.59
60437;BME280;46289;51.992;4.498;2023-09-19T07:51:44;100915.53;;;15.96;94.43
60437;BME280;46289;51.992;4.498;2023-09-19T07:53:53;100911.63;;;16.16;93.76
60437;BME280;46289;51.992;4.498;2023-09-19T07:56:02;100907.56;;;16.24;92.62
60437;BME280;46289;51.992;4.498;2023-09-19T07:58:08;100906.31;;;16.30;92.57
60437;BME280;46289;51.992;4.498;2023-09-19T08:00:14;100908.16;;;16.42;91.69
60437;BME280;46289;51.992;4.498;2023-09-19T08:02:19;100905.72;;;16.39;92.01
60437;BME280;46289;51.992;4.498;2023-09-19T08:04:25;100892.06;;;16.45;90.28
60437;BME280;46289;51.992;4.498;2023-09-19T08:06:33;100905.69;;;16.54;89.73
60437;BME280;46289;51.992;4.498;2023-09-19T08:08:40;100904.25;;;16.62;89.62
60437;BME280;46289;51.992;4.498;2023-09-19T08:10:52;100896.31;;;16.48;90.62
60437;BME280;46289;51.992;4.498;2023-09-19T08:12:59;100888.72;;;16.56;90.55
60437;BME280;46289;51.992;4.498;2023-09-19T08:15:05;100891.94;;;16.61;91.07
60437;BME280;46289;51.992;4.498;2023-09-19T08:17:11;100889.63;;;16.70;91.80
60437;BME280;46289;51.992;4.498;2023-09-19T08:19:20;100892.13;;;16.58;90.86
60437;BME280;46289;51.992;4.498;2023-09-19T08:21:25;100882.22;;;17.02;89.87
60437;BME280;46289;51.992;4.498;2023-09-19T08:23:31;100883.03;;;16.89;88.74
60437;BME280;46289;51.992;4.498;2023-09-19T08:25:36;100882.72;;;16.94;87.56
60437;BME280;46289;51.992;4.498;2023-09-19T08:27:48;100893.34;;;16.94;88.11
60437;BME280;46289;51.992;4.498;2023-09-19T08:29:56;100897.34;;;16.87;87.90
60437;BME280;46289;51.992;4.498;2023-09-19T08:32:02;100890.69;;;17.47;87.06
60437;BME280;46289;51.992;4.498;2023-09-19T08:34:09;100892.66;;;17.18;87.79
60437;BME280;46289;51.992;4.498;2023-09-19T08:36:15;100889.56;;;16.98;86.85
60437;BME280;46289;51.992;4.498;2023-09-19T08:38:20;100900.41;;;16.66;88.61
60437;BME280;46289;51.992;4.498;2023-09-19T08:40:25;100879.53;;;16.48;88.12
60437;BME280;46289;51.992;4.498;2023-09-19T08:42:50;100890.47;;;16.43;88.93
60437;BME280;46289;51.992;4.498;2023-09-19T08:44:57;100889.31;;;16.47;88.93
60437;BME280;46289;51.992;4.498;2023-09-19T08:47:09;100892.72;;;16.49;88.83
60437;BME280;46289;51.992;4.498;2023-09-19T08:49:23;100886.22;;;16.40;89.11
60437;BME280;46289;51.992;4.498;2023-09-19T08:51:38;100879.88;;;16.43;89.41
60437;BME280;46289;51.992;4.498;2023-09-19T08:53:51;100887.22;;;16.52;89.18
60437;BME280;46289;51.992;4.498;2023-09-19T08:56:01;100891.47;;;16.55;89.64
60437;BME280;46289;51.992;4.498;2023-09-19T08:58:11;100890.63;;;16.54;89.50
60437;BME280;46289;51.992;4.498;2023-09-19T09:00:19;100884.63;;;16.65;89.53
60437;BME280;46289;51.992;4.498;2023-09-19T09:02:27;100895.44;;;17.29;87.10
60437;BME280;46289;51.992;4.498;2023-09-19T09:04:33;100881.84;;;17.33;87.09
60437;BME280;46289;51.992;4.498;2023-09-19T09:06:39;100886.66;;;17.41;87.01
60437;BME280;46289;51.992;4.498;2023-09-19T09:08:46;100891.88;;;17.03;88.66
60437;BME280;46289;51.992;4.498;2023-09-19T09:10:52;100885.59;;;16.91;88.51
60437;BME280;46289;51.992;4.498;2023-09-19T09:12:58;100888.00;;;17.34;88.28
60437;BME280;46289;51.992;4.498;2023-09-19T09:15:08;100891.97;;;17.67;85.21
60437;BME280;46289;51.992;4.498;2023-09-19T09:17:18;100881.25;;;17.81;84.62
60437;BME280;46289;51.992;4.498;2023-09-19T09:19:24;100885.69;;;17.68;85.10
60437;BME280;46289;51.992;4.498;2023-09-19T09:21:30;100877.19;;;17.63;85.62
60437;BME280;46289;51.992;4.498;2023-09-19T09:23:38;100871.25;;;17.59;86.28
60437;BME280;46289;51.992;4.498;2023-09-19T09:25:50;100863.69;;;17.40;85.81
60437;BME280;46289;51.992;4.498;2023-09-19T09:27:59;100881.84;;;17.72;85.38
60437;BME280;46289;51.992;4.498;2023-09-19T09:30:32;100893.03;;;17.51;85.73
60437;BME280;46289;51.992;4.498;2023-09-19T09:32:38;100891.44;;;17.87;84.53
60437;BME280;46289;51.992;4.498;2023-09-19T09:35:07;100882.88;;;18.33;82.04
60437;BME280;46289;51.992;4.498;2023-09-19T09:37:17;100870.16;;;18.13;82.42
60437;BME280;46289;51.992;4.498;2023-09-19T09:39:30;100877.50;;;18.09;83.18
60437;BME280;46289;51.992;4.498;2023-09-19T09:41:37;100874.56;;;17.88;83.02
60437;BME280;46289;51.992;4.498;2023-09-19T09:43:43;100876.63;;;18.09;83.75
60437;BME280;46289;51.992;4.498;2023-09-19T09:46:08;100864.63;;;17.90;83.97
60437;BME280;46289;51.992;4.498;2023-09-19T09:48:35;100884.09;;;17.78;84.18
60437;BME280;46289;51.992;4.498;2023-09-19T09:50:47;100869.00;;;18.04;83.70
60437;BME280;46289;51.992;4.498;2023-09-19T09:52:59;100868.47;;;18.12;82.25
60437;BME280;46289;51.992;4.498;2023-09-19T09:55:09;100865.28;;;18.07;83.02
60437;BME280;46289;51.992;4.498;2023-09-19T09:57:14;100870.47;;;18.08;83.91
60437;BME280;46289;51.992;4.498;2023-09-19T09:59:22;100864.34;;;17.82;84.24
60437;BME280;46289;51.992;4.498;2023-09-19T10:01:46;100871.97;;;17.99;83.82
60437;BME280;46289;51.992;4.498;2023-09-19T10:03:57;100864.63;;;17.90;83.98
60437;BME280;46289;51.992;4.498;2023-09-19T10:06:03;100861.03;;;18.04;83.28
60437;BME280;46289;51.992;4.498;2023-09-19T10:08:14;100861.97;;;18.03;80.59
60437;BME280;46289;51.992;4.498;2023-09-19T10:10:39;100850.78;;;18.11;82.00
60437;BME280;46289;51.992;4.498;2023-09-19T10:12:58;100860.00;;;18.31;81.50
60437;BME280;46289;51.992;4.498;2023-09-19T10:15:06;100853.66;;;18.45;81.33
60437;BME280;46289;51.992;4.498;2023-09-19T10:17:16;100845.97;;;18.16;81.30
60437;BME280;46289;51.992;4.498;2023-09-19T10:19:29;100833.78;;;18.37;80.96
60437;BME280;46289;51.992;4.498;2023-09-19T10:21:36;100830.63;;;18.56;80.82
60437;BME280;46289;51.992;4.498;2023-09-19T10:23:45;100838.88;;;18.64;79.39
60437;BME280;46289;51.992;4.498;2023-09-19T10:25:50;100824.69;;;18.77;79.00
60437;BME280;46289;51.992;4.498;2023-09-19T10:27:57;100823.25;;;19.30;79.27
60437;BME280;46289;51.992;4.498;2023-09-19T10:30:08;100819.78;;;19.86;77.38
60437;BME280;46289;51.992;4.498;2023-09-19T10:32:18;100824.16;;;19.76;77.35
60437;BME280;46289;51.992;4.498;2023-09-19T10:34:25;100826.78;;;19.53;76.83
60437;BME280;46289;51.992;4.498;2023-09-19T10:36:33;100835.00;;;19.39;77.43
60437;BME280;46289;51.992;4.498;2023-09-19T10:38:43;100831.69;;;19.13;77.11
60437;BME280;46289;51.992;4.498;2023-09-19T10:40:51;100822.88;;;19.24;76.47
60437;BME280;46289;51.992;4.498;2023-09-19T10:43:03;100824.16;;;18.96;77.31
60437;BME280;46289;51.992;4.498;2023-09-19T10:45:11;100822.97;;;19.11;77.98
60437;BME280;46289;51.992;4.498;2023-09-19T10:47:20;100808.94;;;19.09;78.23
60437;BME280;46289;51.992;4.498;2023-09-19T10:49:26;100803.41;;;19.46;76.28
60437;BME280;46289;51.992;4.498;2023-09-19T10:51:40;100800.50;;;19.94;75.02
60437;BME280;46289;51.992;4.498;2023-09-19T10:53:51;100815.28;;;19.64;75.10
60437;BME280;46289;51.992;4.498;2023-09-19T10:56:01;100809.22;;;19.51;75.41
60437;BME280;46289;51.992;4.498;2023-09-19T10:58:25;100815.50;;;19.50;74.58
60437;BME280;46289;51.992;4.498;2023-09-19T11:00:50;100810.03;;;19.18;75.44
60437;BME280;46289;51.992;4.498;2023-09-19T11:03:20;100815.72;;;19.13;77.48
60437;BME280;46289;51.992;4.498;2023-09-19T11:05:33;100818.00;;;19.06;76.61
60437;BME280;46289;51.992;4.498;2023-09-19T11:07:58;100812.94;;;18.79;77.35
60437;BME280;46289;51.992;4.498;2023-09-19T11:10:06;100813.94;;;18.90;77.49